createdAt,value
2019-05-14T00:01:42.263Z,95.50
2019-05-14T00:04:11.982Z,95.60
2019-05-14T00:06:41.911Z,95.60
2019-05-14T00:09:12.173Z,95.70
2019-05-14T00:11:42.225Z,95.70
2019-05-14T00:14:15.093Z,96.00
2019-05-14T00:16:46.150Z,96.00
2019-05-14T00:19:15.603Z,95.90
2019-05-14T00:21:45.038Z,96.20
2019-05-14T00:24:14.519Z,96.40
2019-05-14T00:26:44.498Z,96.40
2019-05-14T00:29:13.996Z,96.50
2019-05-14T00:31:43.462Z,96.70
2019-05-14T00:34:25.673Z,96.80
2019-05-14T00:36:55.121Z,97.00
2019-05-14T00:39:24.564Z,97.00
2019-05-14T00:41:54.007Z,97.00
2019-05-14T00:44:23.473Z,97.00
2019-05-14T00:46:52.902Z,97.30
2019-05-14T00:49:22.363Z,97.70
2019-05-14T00:51:52.069Z,97.30
2019-05-14T00:54:21.695Z,97.40
2019-05-14T00:56:52.148Z,97.10
2019-05-14T00:59:21.978Z,97.30
2019-05-14T01:01:51.768Z,97.40
2019-05-14T01:04:22.271Z,97.20
2019-05-14T01:06:51.794Z,97.30
2019-05-14T01:09:21.847Z,97.50
2019-05-14T01:11:51.430Z,97.60
2019-05-14T01:14:21.113Z,98.00
2019-05-14T01:16:51.429Z,97.90
2019-05-14T01:19:21.454Z,98.10
2019-05-14T01:21:51.136Z,98.10
2019-05-14T01:24:21.594Z,98.30
2019-05-14T01:26:52.240Z,98.30
2019-05-14T01:29:22.044Z,98.50
2019-05-14T01:31:52.603Z,98.60
2019-05-14T01:34:22.078Z,98.60
2019-05-14T01:36:52.927Z,98.90
2019-05-14T01:39:22.665Z,99.00
2019-05-14T01:41:52.113Z,99.20
2019-05-14T01:44:21.545Z,99.30
2019-05-14T01:46:51.358Z,99.50
2019-05-14T01:49:22.100Z,99.60
2019-05-14T01:51:51.776Z,99.70
2019-05-14T01:54:21.694Z,99.90
2019-05-14T01:56:51.602Z,99.90
2019-05-14T01:59:21.429Z,99.90
2019-05-14T02:01:51.734Z,99.90
2019-05-14T02:04:22.141Z,99.90
2019-05-14T02:06:51.913Z,99.90
2019-05-14T02:09:22.020Z,99.90
2019-05-14T02:11:51.943Z,99.90
2019-05-14T02:14:21.961Z,99.90
2019-05-14T02:16:52.534Z,99.90
2019-05-14T02:19:22.243Z,99.90
2019-05-14T02:21:51.861Z,99.90
2019-05-14T02:24:21.825Z,99.90
2019-05-14T02:26:51.665Z,99.90
2019-05-14T02:29:22.416Z,99.90
2019-05-14T02:31:51.851Z,99.90
2019-05-14T02:34:21.747Z,99.90
2019-05-14T02:36:51.191Z,99.90
2019-05-14T02:39:20.695Z,99.90
2019-05-14T02:41:50.172Z,99.90
2019-05-14T02:44:19.636Z,99.90
2019-05-14T02:46:50.631Z,99.90
2019-05-14T02:49:20.128Z,99.90
2019-05-14T02:51:50.542Z,99.90
2019-05-14T02:54:20.629Z,99.90
2019-05-14T02:56:50.261Z,99.90
2019-05-14T02:59:19.901Z,99.90
2019-05-14T03:01:50.396Z,99.90
2019-05-14T03:04:20.187Z,99.90
2019-05-14T03:06:50.044Z,99.90
2019-05-14T03:09:20.447Z,99.90
2019-05-14T03:11:50.387Z,99.90
2019-05-14T03:14:19.944Z,99.90
2019-05-14T03:16:49.827Z,99.90
2019-05-14T03:19:20.749Z,99.90
2019-05-14T03:21:50.503Z,99.90
2019-05-14T03:24:20.205Z,99.90
2019-05-14T03:26:50.264Z,99.90
2019-05-14T03:29:19.940Z,99.90
2019-05-14T03:31:52.493Z,99.90
2019-05-14T03:34:22.125Z,99.90
2019-05-14T03:36:53.296Z,99.90
2019-05-14T03:39:22.968Z,99.90
2019-05-14T03:41:52.663Z,99.90
2019-05-14T03:44:22.236Z,99.90
2019-05-14T03:46:55.540Z,99.90
2019-05-14T03:49:22.732Z,99.90
2019-05-14T03:51:52.246Z,99.90
2019-05-14T03:54:21.692Z,99.90
2019-05-14T03:56:51.504Z,99.90
2019-05-14T03:59:21.035Z,99.90
2019-05-14T04:01:51.257Z,99.90
2019-05-14T04:04:21.124Z,99.90
2019-05-14T04:06:51.405Z,99.90
2019-05-14T04:09:21.783Z,99.90
2019-05-14T04:11:53.370Z,99.90
2019-05-14T04:14:25.152Z,99.90
2019-05-14T04:17:08.038Z,99.90
2019-05-14T04:19:29.781Z,99.90
2019-05-14T04:22:00.056Z,99.90
2019-05-14T04:28:06.115Z,99.90
2019-05-14T04:30:39.988Z,99.90
2019-05-14T04:33:11.328Z,99.90
2019-05-14T04:35:41.405Z,99.90
2019-05-14T04:38:10.931Z,99.90
2019-05-14T04:44:04.699Z,99.90
2019-05-14T04:46:34.637Z,99.90
2019-05-14T04:49:04.222Z,99.90
2019-05-14T04:51:53.076Z,99.90
2019-05-14T04:54:22.622Z,99.90
2019-05-14T04:56:52.054Z,99.90
2019-05-14T04:59:21.503Z,99.90
2019-05-14T05:05:29.702Z,99.90
2019-05-14T05:07:59.684Z,99.90
2019-05-14T05:10:29.771Z,99.90
2019-05-14T05:12:59.416Z,99.90
2019-05-14T05:15:29.156Z,99.90
2019-05-14T05:17:59.140Z,99.90
2019-05-14T05:20:29.346Z,99.90
2019-05-14T05:22:59.161Z,99.90
2019-05-14T05:25:29.315Z,99.90
2019-05-14T05:27:59.768Z,99.90
2019-05-14T05:30:29.653Z,99.90
2019-05-14T05:32:59.666Z,99.90
2019-05-14T05:35:29.383Z,99.90
2019-05-14T05:37:58.856Z,99.90
2019-05-14T05:44:15.687Z,99.90
2019-05-14T05:50:09.724Z,99.90
2019-05-14T05:52:39.157Z,99.90
2019-05-14T05:55:09.453Z,99.90
2019-05-14T05:57:39.464Z,99.90
2019-05-14T06:00:10.187Z,99.90
2019-05-14T06:02:40.094Z,99.90
2019-05-14T06:05:10.409Z,99.90
2019-05-14T06:07:39.852Z,99.90
2019-05-14T06:13:45.192Z,99.90
2019-05-14T06:16:14.616Z,99.90
2019-05-14T06:18:44.051Z,99.90
2019-05-14T06:21:13.513Z,99.90
2019-05-14T06:23:42.958Z,99.90
2019-05-14T06:26:12.439Z,99.90
2019-05-14T06:28:41.895Z,99.90
2019-05-14T06:31:11.335Z,99.90
2019-05-14T06:33:40.881Z,99.90
2019-05-14T06:36:14.154Z,99.90
2019-05-14T06:38:42.570Z,99.90
2019-05-14T06:41:12.004Z,99.90
2019-05-14T06:43:41.440Z,99.90
2019-05-14T06:46:10.895Z,99.90
2019-05-14T06:48:40.415Z,99.90
2019-05-14T06:51:09.871Z,99.90
2019-05-14T06:53:39.534Z,99.90
2019-05-14T06:56:09.059Z,99.90
2019-05-14T06:58:39.598Z,99.90
2019-05-14T07:01:09.814Z,99.90
2019-05-14T07:03:39.356Z,99.90
2019-05-14T07:06:09.224Z,99.90
2019-05-14T07:08:39.275Z,99.90
2019-05-14T07:11:09.179Z,99.90
2019-05-14T07:13:38.770Z,99.90
2019-05-14T07:16:08.943Z,99.90
2019-05-14T07:18:52.786Z,99.90
2019-05-14T07:21:10.828Z,99.90
2019-05-14T07:23:40.270Z,99.90
2019-05-14T07:26:09.732Z,99.90
2019-05-14T07:28:41.990Z,99.90
2019-05-14T07:31:10.768Z,99.90
2019-05-14T07:33:40.218Z,99.90
2019-05-14T07:36:09.663Z,99.90
2019-05-14T07:38:39.424Z,99.90
2019-05-14T07:41:09.476Z,99.90
2019-05-14T07:43:40.006Z,99.90
2019-05-14T07:46:09.442Z,99.90
2019-05-14T07:48:39.408Z,99.90
2019-05-14T07:51:09.214Z,99.90
2019-05-14T07:53:42.248Z,99.90
2019-05-14T07:56:09.739Z,99.90
2019-05-14T07:58:39.204Z,99.90
2019-05-14T08:01:09.488Z,99.90
2019-05-14T08:03:39.080Z,99.70
2019-05-14T08:06:08.558Z,99.90
2019-05-14T08:08:39.068Z,99.60
2019-05-14T08:11:08.863Z,99.40
2019-05-14T08:13:39.112Z,99.40
2019-05-14T08:16:09.174Z,98.80
2019-05-14T08:18:39.630Z,99.00
2019-05-14T08:21:09.703Z,97.90
2019-05-14T08:23:39.475Z,97.60
2019-05-14T08:26:10.068Z,98.10
2019-05-14T08:28:39.519Z,96.90
2019-05-14T08:31:09.583Z,96.10
2019-05-14T08:37:23.938Z,96.10
2019-05-14T08:39:53.425Z,95.40
2019-05-14T08:42:22.858Z,96.40
2019-05-14T08:44:52.311Z,96.50
2019-05-14T08:47:21.768Z,95.30
2019-05-14T08:49:51.282Z,96.00
2019-05-14T08:52:20.771Z,95.50
2019-05-14T08:55:05.431Z,94.50
2019-05-14T08:57:21.427Z,95.20
2019-05-14T08:59:51.005Z,92.90
2019-05-14T09:02:21.421Z,94.00
2019-05-14T09:04:54.085Z,91.80
2019-05-14T09:07:21.984Z,92.00
2019-05-14T09:09:51.423Z,91.40
2019-05-14T09:12:20.887Z,92.20
2019-05-14T09:14:50.319Z,93.00
2019-05-14T09:17:19.837Z,93.40
2019-05-14T09:20:02.037Z,93.30
2019-05-14T09:22:20.446Z,92.30
2019-05-14T09:24:49.951Z,93.30
2019-05-14T09:27:19.514Z,93.90
2019-05-14T09:29:49.136Z,92.00
2019-05-14T09:32:19.242Z,92.70
2019-05-14T09:34:48.970Z,91.50
2019-05-14T09:37:19.309Z,92.00
2019-05-14T09:39:49.181Z,93.60
2019-05-14T09:42:19.542Z,90.20
2019-05-14T09:44:49.480Z,91.10
2019-05-14T09:47:20.105Z,90.70
2019-05-14T09:49:49.539Z,91.30
2019-05-14T09:52:19.081Z,91.20
2019-05-14T09:54:49.586Z,91.10
2019-05-14T09:57:19.349Z,91.50
2019-05-14T09:59:48.746Z,90.30
2019-05-14T10:02:18.277Z,89.50
2019-05-14T10:04:49.044Z,86.20
2019-05-14T10:07:18.833Z,90.00
2019-05-14T10:09:49.205Z,85.50
2019-05-14T10:12:18.872Z,85.50
2019-05-14T10:14:48.795Z,85.30
2019-05-14T10:17:19.381Z,86.90
2019-05-14T10:19:49.781Z,85.30
2019-05-14T10:22:19.972Z,83.50
2019-05-14T10:28:02.718Z,83.60
2019-05-14T10:30:32.307Z,80.90
2019-05-14T10:33:09.029Z,77.90
2019-05-14T10:35:32.918Z,79.20
2019-05-14T10:41:14.470Z,80.50
2019-05-14T10:43:44.024Z,78.30
2019-05-14T10:46:13.551Z,80.10
2019-05-14T10:48:42.996Z,78.80
2019-05-14T10:51:12.448Z,78.50
2019-05-14T10:53:41.944Z,77.00
2019-05-14T10:56:11.391Z,78.10
2019-05-14T10:58:40.852Z,76.10
2019-05-14T11:01:11.597Z,72.80
2019-05-14T11:03:41.047Z,74.50
2019-05-14T11:06:11.660Z,77.10
2019-05-14T11:08:41.487Z,74.30
2019-05-14T11:11:10.950Z,77.00
2019-05-14T11:13:40.419Z,77.10
2019-05-14T11:16:09.862Z,77.10
2019-05-14T11:18:39.805Z,75.40
2019-05-14T11:21:25.750Z,75.50
2019-05-14T11:23:41.896Z,71.90
2019-05-14T11:26:11.411Z,72.40
2019-05-14T11:28:40.883Z,76.10
2019-05-14T11:31:10.317Z,74.80
2019-05-14T11:33:39.799Z,74.20
2019-05-14T11:36:09.524Z,74.20
2019-05-14T11:38:39.080Z,73.40
2019-05-14T11:41:09.549Z,71.90
2019-05-14T11:43:39.934Z,75.30
2019-05-14T11:46:09.615Z,73.70
2019-05-14T11:48:39.456Z,72.10
2019-05-14T11:51:09.275Z,76.80
2019-05-14T11:53:38.981Z,72.40
2019-05-14T11:56:08.808Z,72.80
2019-05-14T11:58:39.764Z,72.80
2019-05-14T12:01:09.448Z,72.60
2019-05-14T12:03:39.609Z,71.20
2019-05-14T12:06:09.891Z,72.40
2019-05-14T12:08:41.833Z,71.30
2019-05-14T12:11:10.831Z,72.40
2019-05-14T12:13:40.279Z,71.40
2019-05-14T12:16:09.711Z,66.70
2019-05-14T12:18:41.758Z,67.40
2019-05-14T12:21:10.258Z,68.50
2019-05-14T12:27:03.343Z,67.60
2019-05-14T12:29:32.867Z,68.70
2019-05-14T12:32:02.518Z,68.10
2019-05-14T12:34:31.973Z,67.70
2019-05-14T12:40:24.940Z,66.80
2019-05-14T12:42:54.436Z,68.40
2019-05-14T12:45:23.938Z,66.90
2019-05-14T12:47:53.475Z,66.10
2019-05-14T12:50:23.099Z,68.50
2019-05-14T12:52:52.543Z,64.10
2019-05-14T12:55:21.984Z,64.30
2019-05-14T12:57:51.464Z,64.50
2019-05-14T13:00:21.371Z,66.30
2019-05-14T13:02:50.807Z,67.50
2019-05-14T13:05:20.340Z,65.70
2019-05-14T13:07:51.155Z,64.60
2019-05-14T13:10:21.090Z,63.60
2019-05-14T13:12:50.652Z,65.50
2019-05-14T13:15:20.421Z,66.40
2019-05-14T13:17:49.885Z,67.00
2019-05-14T13:23:42.967Z,63.40
2019-05-14T13:26:12.467Z,62.90
2019-05-14T13:32:11.863Z,62.80
2019-05-14T13:34:39.380Z,62.00
2019-05-14T13:37:07.941Z,62.50
2019-05-14T13:43:25.129Z,62.90
2019-05-14T13:45:55.659Z,61.50
2019-05-14T13:48:29.326Z,61.90
2019-05-14T13:50:57.254Z,62.10
2019-05-14T13:53:29.298Z,60.30
2019-05-14T13:55:58.085Z,57.40
2019-05-14T13:58:28.601Z,57.70
2019-05-14T14:00:59.432Z,59.10
2019-05-14T14:03:29.551Z,57.90
2019-05-14T14:05:59.624Z,56.60
2019-05-14T14:08:29.504Z,56.70
2019-05-14T14:11:03.007Z,59.10
2019-05-14T14:13:31.760Z,56.70
2019-05-14T14:16:01.384Z,55.30
2019-05-14T14:18:30.968Z,57.90
2019-05-14T14:21:00.435Z,57.50
2019-05-14T14:23:31.165Z,56.80
2019-05-14T14:26:01.179Z,58.90
2019-05-14T14:28:30.635Z,56.90
2019-05-14T14:31:00.066Z,57.10
2019-05-14T14:33:29.571Z,56.10
2019-05-14T14:35:58.991Z,55.00
2019-05-14T14:38:29.401Z,55.90
2019-05-14T14:40:59.307Z,55.60
2019-05-14T14:43:29.641Z,54.50
2019-05-14T14:45:59.471Z,53.00
2019-05-14T14:48:30.238Z,53.60
2019-05-14T14:51:00.107Z,52.20
2019-05-14T14:53:42.800Z,52.20
2019-05-14T14:56:00.672Z,52.70
2019-05-14T14:58:30.102Z,53.40
2019-05-14T15:00:59.594Z,51.60
2019-05-14T15:03:31.431Z,52.70
2019-05-14T15:09:25.942Z,50.40
2019-05-14T15:11:55.375Z,50.20
2019-05-14T15:14:24.829Z,51.10
2019-05-14T15:16:54.296Z,50.10
2019-05-14T15:19:23.745Z,52.20
2019-05-14T15:21:53.217Z,49.50
2019-05-14T15:24:22.688Z,50.70
2019-05-14T15:26:52.214Z,47.60
2019-05-14T15:29:21.604Z,48.70
2019-05-14T15:31:51.056Z,48.80
2019-05-14T15:34:20.511Z,48.10
2019-05-14T15:36:49.999Z,47.30
2019-05-14T15:39:22.492Z,47.40
2019-05-14T15:41:50.647Z,50.40
2019-05-14T15:44:20.256Z,49.50
2019-05-14T15:46:49.747Z,50.50
2019-05-14T15:49:19.328Z,51.40
2019-05-14T15:51:48.910Z,50.20
2019-05-14T15:54:36.018Z,48.30
2019-05-14T15:56:49.487Z,47.20
2019-05-14T15:59:19.347Z,48.60
2019-05-14T16:01:48.948Z,50.60
2019-05-14T16:04:20.865Z,48.90
2019-05-14T16:10:15.122Z,47.20
2019-05-14T16:12:44.665Z,48.00
2019-05-14T16:15:14.834Z,48.40
2019-05-14T16:17:50.643Z,48.50
2019-05-14T16:20:18.578Z,45.40
2019-05-14T16:26:10.406Z,47.60
2019-05-14T16:32:03.935Z,46.60
2019-05-14T16:34:33.443Z,47.50
2019-05-14T16:37:02.903Z,46.10
2019-05-14T16:39:32.370Z,46.10
2019-05-14T16:42:01.840Z,46.10
2019-05-14T16:44:31.271Z,47.90
2019-05-14T16:47:00.733Z,46.00
2019-05-14T16:49:32.159Z,44.30
2019-05-14T16:52:01.445Z,48.30
2019-05-14T16:54:31.076Z,44.80
2019-05-14T16:57:00.556Z,45.30
2019-05-14T16:59:30.005Z,43.70
2019-05-14T17:01:59.454Z,46.70
2019-05-14T17:04:29.433Z,43.20
2019-05-14T17:06:59.182Z,44.10
2019-05-14T17:09:28.604Z,43.40
2019-05-14T17:11:58.972Z,43.40
2019-05-14T17:14:29.336Z,43.00
2019-05-14T17:16:59.672Z,42.90
2019-05-14T17:19:29.787Z,43.20
2019-05-14T17:21:59.594Z,42.10
2019-05-14T17:24:29.478Z,44.30
2019-05-14T17:26:59.204Z,42.50
2019-05-14T17:29:28.815Z,43.00
2019-05-14T17:31:58.486Z,43.00
2019-05-14T17:34:29.300Z,44.30
2019-05-14T17:37:00.243Z,44.10
2019-05-14T17:39:29.682Z,43.60
2019-05-14T17:41:59.189Z,43.50
2019-05-14T17:44:28.647Z,45.00
2019-05-14T17:46:59.259Z,43.50
2019-05-14T17:49:29.178Z,44.90
2019-05-14T17:51:58.702Z,44.90
2019-05-14T17:54:28.675Z,45.30
2019-05-14T18:00:21.767Z,43.90
2019-05-14T18:02:51.170Z,44.90
2019-05-14T18:05:20.612Z,44.60
2019-05-14T18:07:50.380Z,45.00
2019-05-14T18:10:19.895Z,46.40
2019-05-14T18:12:49.442Z,45.20
2019-05-14T18:18:41.992Z,45.10
2019-05-14T18:21:11.498Z,44.60
2019-05-14T18:23:42.138Z,45.00
2019-05-14T18:26:11.819Z,45.30
2019-05-14T18:28:41.270Z,45.60
2019-05-14T18:31:11.407Z,45.60
2019-05-14T18:33:40.935Z,45.60
2019-05-14T18:36:10.422Z,46.00
2019-05-14T18:38:39.871Z,47.50
2019-05-14T18:41:09.480Z,48.00
2019-05-14T18:43:38.911Z,49.30
2019-05-14T18:46:08.613Z,50.00
2019-05-14T18:48:38.233Z,49.40
2019-05-14T18:51:09.025Z,49.90
2019-05-14T18:53:38.946Z,51.20
2019-05-14T18:56:19.421Z,52.30
2019-05-14T18:58:39.503Z,53.00
2019-05-14T19:04:43.722Z,54.10
2019-05-14T19:07:15.525Z,55.00
2019-05-14T19:09:44.275Z,55.50
2019-05-14T19:12:13.727Z,56.40
2019-05-14T19:14:43.179Z,56.80
2019-05-14T19:20:36.250Z,57.40
2019-05-14T19:23:08.009Z,57.90
2019-05-14T19:25:38.903Z,58.20
2019-05-14T19:28:08.964Z,58.80
2019-05-14T19:30:40.397Z,58.90
2019-05-14T19:33:10.120Z,59.60
2019-05-14T19:35:49.079Z,59.90
2019-05-14T19:41:35.614Z,61.10
2019-05-14T19:44:08.842Z,60.60
2019-05-14T19:46:43.311Z,61.20
2019-05-14T19:49:28.829Z,61.80
2019-05-14T19:52:02.738Z,62.70
2019-05-14T19:54:38.402Z,63.10
2019-05-14T19:57:10.079Z,62.50
2019-05-14T19:59:39.990Z,62.90
2019-05-14T20:02:09.734Z,63.70
2019-05-14T20:08:15.343Z,64.20
2019-05-14T20:10:44.878Z,64.90
2019-05-14T20:13:14.455Z,64.60
2019-05-14T20:15:43.960Z,65.20
2019-05-14T20:18:13.515Z,65.90
2019-05-14T20:20:45.352Z,65.90
2019-05-14T20:23:18.511Z,65.60
2019-05-14T20:25:51.078Z,66.10
2019-05-14T20:28:20.938Z,66.40
2019-05-14T20:34:29.589Z,66.90
2019-05-14T20:37:00.646Z,67.40
2019-05-14T20:39:33.401Z,67.90
2019-05-14T20:42:01.245Z,67.70
2019-05-14T20:44:30.761Z,67.20
2019-05-14T20:47:00.214Z,68.10
2019-05-14T20:49:29.675Z,68.00
2019-05-14T20:51:59.587Z,68.50
2019-05-14T20:54:29.111Z,69.20
2019-05-14T20:56:58.672Z,69.30
2019-05-14T20:59:28.358Z,69.40
2019-05-14T21:01:58.956Z,69.70
2019-05-14T21:04:28.673Z,69.70
2019-05-14T21:06:58.760Z,70.70
2019-05-14T21:09:29.452Z,72.40
2019-05-14T21:11:58.961Z,72.70
2019-05-14T21:14:28.461Z,73.40
2019-05-14T21:16:57.941Z,73.60
2019-05-14T21:19:28.314Z,73.20
2019-05-14T21:21:58.207Z,74.20
2019-05-14T21:24:29.555Z,75.50
2019-05-14T21:26:59.200Z,75.20
2019-05-14T21:29:30.605Z,75.70
2019-05-14T21:32:01.581Z,76.50
2019-05-14T21:34:31.564Z,77.30
2019-05-14T21:37:01.061Z,78.40
2019-05-14T21:39:30.527Z,79.60
2019-05-14T21:42:00.012Z,79.30
2019-05-14T21:48:04.424Z,83.50
2019-05-14T21:50:33.989Z,83.80
2019-05-14T21:53:03.538Z,85.00
2019-05-14T21:55:33.112Z,86.40
2019-05-14T21:58:02.616Z,87.70
2019-05-14T22:00:41.987Z,88.20
2019-05-14T22:03:10.982Z,88.60
2019-05-14T22:05:40.589Z,89.30
2019-05-14T22:08:10.068Z,90.40
2019-05-14T22:10:40.132Z,90.80
2019-05-14T22:13:10.909Z,92.10
2019-05-14T22:15:41.648Z,92.40
2019-05-14T22:18:17.270Z,92.90
2019-05-14T22:20:42.490Z,92.90
2019-05-14T22:23:11.980Z,93.10
2019-05-14T22:29:08.154Z,93.90
2019-05-14T22:31:38.719Z,94.20
2019-05-14T22:34:08.901Z,94.00
2019-05-14T22:36:39.444Z,94.00
2019-05-14T22:39:08.923Z,94.30
2019-05-14T22:41:38.506Z,94.60
2019-05-14T22:44:09.612Z,94.70
2019-05-14T22:46:40.387Z,94.80
2019-05-14T22:49:10.178Z,95.30
2019-05-14T22:51:39.721Z,95.60
2019-05-14T22:54:09.208Z,95.40
2019-05-14T22:56:39.161Z,95.50
2019-05-14T22:59:08.764Z,95.60
2019-05-14T23:01:38.790Z,95.90
2019-05-14T23:04:09.042Z,96.10
2019-05-14T23:06:38.800Z,96.30
2019-05-14T23:09:09.028Z,96.70
2019-05-14T23:11:38.900Z,96.70
2019-05-14T23:14:08.338Z,96.90
2019-05-14T23:16:41.690Z,97.20
2019-05-14T23:19:10.184Z,97.30
2019-05-14T23:21:39.660Z,97.60
2019-05-14T23:24:09.401Z,97.90
2019-05-14T23:26:38.941Z,98.00
2019-05-14T23:29:08.421Z,98.30
2019-05-14T23:31:38.647Z,98.50
2019-05-14T23:34:09.444Z,98.70
2019-05-14T23:36:39.021Z,98.90
2019-05-14T23:39:08.989Z,99.10
2019-05-14T23:41:38.908Z,99.40
2019-05-14T23:44:08.575Z,99.60
2019-05-14T23:46:38.177Z,99.80
2019-05-14T23:49:08.929Z,99.90
2019-05-14T23:51:38.723Z,99.90
2019-05-14T23:54:08.771Z,99.90
2019-05-14T23:56:38.662Z,99.90
2019-05-14T23:59:09.313Z,99.90
